createdAt,value
2023-02-02T00:01:53.895Z,7.63
2023-02-02T00:04:33.524Z,7.61
2023-02-02T00:07:02.826Z,7.60
2023-02-02T00:09:32.059Z,7.57
2023-02-02T00:12:01.269Z,7.60
2023-02-02T00:14:28.525Z,7.54
2023-02-02T00:16:58.017Z,7.52
2023-02-02T00:19:33.510Z,7.50
2023-02-02T00:22:00.425Z,7.45
2023-02-02T00:24:27.507Z,7.49
2023-02-02T00:26:59.800Z,7.44
2023-02-02T00:29:30.031Z,7.43
2023-02-02T00:31:57.322Z,7.40
2023-02-02T00:34:24.657Z,7.36
2023-02-02T00:36:52.059Z,7.36
2023-02-02T00:39:23.149Z,7.31
2023-02-02T00:41:50.136Z,7.29
2023-02-02T00:44:35.586Z,7.26
2023-02-02T00:47:03.859Z,7.26
2023-02-02T00:49:31.041Z,7.24
2023-02-02T00:51:58.219Z,7.23
2023-02-02T00:54:25.374Z,7.23
2023-02-02T00:56:56.400Z,7.25
2023-02-02T00:59:23.798Z,7.24
2023-02-02T01:01:51.449Z,7.24
2023-02-02T01:04:18.541Z,7.22
2023-02-02T01:06:47.874Z,7.21
2023-02-02T01:09:14.933Z,7.21
2023-02-02T01:11:42.287Z,7.20
2023-02-02T01:14:09.292Z,7.20
2023-02-02T01:16:36.410Z,7.20
2023-02-02T01:19:03.999Z,7.20
2023-02-02T01:21:31.029Z,7.19
2023-02-02T01:23:58.117Z,7.14
2023-02-02T01:26:25.133Z,7.15
2023-02-02T01:28:52.143Z,7.16
2023-02-02T01:31:21.328Z,7.14
2023-02-02T01:33:50.153Z,7.13
2023-02-02T01:36:21.558Z,7.11
2023-02-02T01:38:49.761Z,7.14
2023-02-02T01:41:22.120Z,7.14
2023-02-02T01:44:45.665Z,7.15
2023-02-02T01:47:13.375Z,7.12
2023-02-02T01:49:41.412Z,7.12
2023-02-02T01:52:10.660Z,7.13
2023-02-02T01:54:58.399Z,7.11
2023-02-02T01:57:36.352Z,7.11
2023-02-02T02:00:09.028Z,7.12
2023-02-02T02:02:45.948Z,7.11
2023-02-02T02:05:19.852Z,7.11
2023-02-02T02:07:50.477Z,7.11
2023-02-02T02:10:18.775Z,7.12
2023-02-02T02:12:48.643Z,7.15
2023-02-02T02:15:34.561Z,7.11
2023-02-02T02:18:35.275Z,7.15
2023-02-02T02:22:15.831Z,7.17
2023-02-02T02:25:51.852Z,7.14
2023-02-02T02:29:03.122Z,7.17
2023-02-02T02:31:56.035Z,7.16
2023-02-02T02:34:44.749Z,7.18
2023-02-02T02:37:38.891Z,7.17
2023-02-02T02:40:34.626Z,7.18
2023-02-02T02:43:15.597Z,7.17
2023-02-02T02:45:44.809Z,7.19
2023-02-02T02:48:13.642Z,7.20
2023-02-02T02:50:40.768Z,7.19
2023-02-02T02:53:16.547Z,7.16
2023-02-02T02:56:25.102Z,7.13
2023-02-02T02:59:05.307Z,7.12
2023-02-02T03:02:08.746Z,7.14
2023-02-02T03:05:08.992Z,7.13
2023-02-02T03:07:42.935Z,7.13
2023-02-02T03:10:13.787Z,7.17
2023-02-02T03:12:49.350Z,7.16
2023-02-02T03:15:17.977Z,7.13
2023-02-02T03:17:52.503Z,7.12
2023-02-02T03:20:22.853Z,7.12
2023-02-02T03:22:51.302Z,7.05
2023-02-02T03:25:18.809Z,7.02
2023-02-02T03:27:45.831Z,6.98
2023-02-02T03:30:14.167Z,6.93
2023-02-02T03:32:41.730Z,6.89
2023-02-02T03:35:11.172Z,6.81
2023-02-02T03:37:38.513Z,6.77
2023-02-02T03:40:07.108Z,6.74
2023-02-02T03:42:34.139Z,6.69
2023-02-02T03:45:01.152Z,6.69
2023-02-02T03:47:29.929Z,6.64
2023-02-02T03:49:57.510Z,6.61
2023-02-02T03:52:26.683Z,6.53
2023-02-02T03:54:53.911Z,6.49
2023-02-02T03:57:20.814Z,6.44
2023-02-02T03:59:47.781Z,6.39
2023-02-02T04:02:14.818Z,6.33
2023-02-02T04:04:41.736Z,6.31
2023-02-02T04:07:08.644Z,6.32
2023-02-02T04:09:35.632Z,6.31
2023-02-02T04:12:02.590Z,6.31
2023-02-02T04:14:29.445Z,6.39
2023-02-02T04:16:56.329Z,6.31
2023-02-02T04:19:25.997Z,6.37
2023-02-02T04:21:53.597Z,6.33
2023-02-02T04:24:20.528Z,6.36
2023-02-02T04:26:47.728Z,6.30
2023-02-02T04:29:14.940Z,6.32
2023-02-02T04:31:42.543Z,6.32
2023-02-02T04:34:09.552Z,6.33
2023-02-02T04:36:36.410Z,6.31
2023-02-02T04:39:03.929Z,6.27
2023-02-02T04:41:32.312Z,6.22
2023-02-02T04:43:59.192Z,6.20
2023-02-02T04:46:26.609Z,6.19
2023-02-02T04:48:53.548Z,6.17
2023-02-02T04:51:20.421Z,6.13
2023-02-02T04:53:47.372Z,6.07
2023-02-02T04:56:18.917Z,6.03
2023-02-02T04:58:46.402Z,5.97
2023-02-02T05:01:20.196Z,5.94
2023-02-02T05:03:48.527Z,5.89
2023-02-02T05:06:16.401Z,5.81
2023-02-02T05:08:44.120Z,5.75
2023-02-02T05:11:18.510Z,5.72
2023-02-02T05:13:50.052Z,5.66
2023-02-02T05:16:17.910Z,5.65
2023-02-02T05:18:59.469Z,5.62
2023-02-02T05:21:26.942Z,5.62
2023-02-02T05:23:53.911Z,5.60
2023-02-02T05:26:26.823Z,5.57
2023-02-02T05:28:54.171Z,5.55
2023-02-02T05:31:21.245Z,5.47
2023-02-02T05:33:48.329Z,5.43
2023-02-02T05:36:15.299Z,5.42
2023-02-02T05:38:42.263Z,5.39
2023-02-02T05:41:09.268Z,5.37
2023-02-02T05:43:36.211Z,5.35
2023-02-02T05:46:04.061Z,5.31
2023-02-02T05:48:31.101Z,5.29
2023-02-02T05:51:11.374Z,5.29
2023-02-02T05:53:38.384Z,5.24
2023-02-02T05:56:05.847Z,5.18
2023-02-02T05:58:32.943Z,5.14
2023-02-02T06:01:00.256Z,5.09
2023-02-02T06:03:27.631Z,5.08
2023-02-02T06:05:54.686Z,5.04
2023-02-02T06:08:21.771Z,5.02
2023-02-02T06:10:49.394Z,4.99
2023-02-02T06:13:16.287Z,4.98
2023-02-02T06:15:43.448Z,4.92
2023-02-02T06:18:11.052Z,4.91
2023-02-02T06:20:38.787Z,4.89
2023-02-02T06:23:06.854Z,4.87
2023-02-02T06:25:34.544Z,4.85
2023-02-02T06:28:01.721Z,4.85
2023-02-02T06:30:29.040Z,4.88
2023-02-02T06:32:56.092Z,4.89
2023-02-02T06:35:23.368Z,4.90
2023-02-02T06:37:50.483Z,4.91
2023-02-02T06:40:20.881Z,4.93
2023-02-02T06:42:47.842Z,4.96
2023-02-02T06:45:15.086Z,5.00
2023-02-02T06:47:42.664Z,5.00
2023-02-02T06:50:10.642Z,5.02
2023-02-02T06:52:37.575Z,5.03
2023-02-02T06:55:05.119Z,5.04
2023-02-02T06:57:32.352Z,5.02
2023-02-02T06:59:59.701Z,5.05
2023-02-02T07:02:26.996Z,5.05
2023-02-02T07:04:54.136Z,5.07
2023-02-02T07:07:21.218Z,5.08
2023-02-02T07:09:48.160Z,5.15
2023-02-02T07:12:27.558Z,5.12
2023-02-02T07:14:54.684Z,5.15
2023-02-02T07:17:23.745Z,5.16
2023-02-02T07:19:51.152Z,5.20
2023-02-02T07:22:18.409Z,5.24
2023-02-02T07:24:45.295Z,5.26
2023-02-02T07:27:12.347Z,5.34
2023-02-02T07:29:39.439Z,5.27
2023-02-02T07:32:06.557Z,5.26
2023-02-02T07:34:33.885Z,5.30
2023-02-02T07:37:00.944Z,5.33
2023-02-02T07:39:27.863Z,5.33
2023-02-02T07:41:55.157Z,5.34
2023-02-02T07:44:30.908Z,5.35
2023-02-02T07:46:58.417Z,5.39
2023-02-02T07:49:25.717Z,5.44
2023-02-02T07:51:53.394Z,5.48
2023-02-02T07:54:21.519Z,5.45
2023-02-02T07:56:48.833Z,5.50
2023-02-02T07:59:16.480Z,5.58
2023-02-02T08:01:43.684Z,5.60
2023-02-02T08:04:10.734Z,5.67
2023-02-02T08:06:40.019Z,5.69
2023-02-02T08:09:09.235Z,5.76
2023-02-02T08:11:39.964Z,5.78
2023-02-02T08:14:07.961Z,5.85
2023-02-02T08:16:36.155Z,5.87
2023-02-02T08:19:03.703Z,5.92
2023-02-02T08:21:34.882Z,5.98
2023-02-02T08:24:03.250Z,6.05
2023-02-02T08:26:32.097Z,6.12
2023-02-02T08:29:03.694Z,6.18
2023-02-02T08:31:38.027Z,6.29
2023-02-02T08:34:06.138Z,6.33
2023-02-02T08:36:35.589Z,6.37
2023-02-02T08:39:07.492Z,6.47
2023-02-02T08:41:35.066Z,6.46
2023-02-02T08:44:05.248Z,6.63
2023-02-02T08:46:33.134Z,6.66
2023-02-02T08:49:00.252Z,6.75
2023-02-02T08:51:27.743Z,6.81
2023-02-02T08:53:55.119Z,6.87
2023-02-02T08:56:23.641Z,6.95
2023-02-02T08:58:56.236Z,7.01
2023-02-02T09:01:27.090Z,7.05
2023-02-02T09:04:00.327Z,7.15
2023-02-02T09:06:39.303Z,7.13
2023-02-02T09:09:11.156Z,7.26
2023-02-02T09:11:40.727Z,7.36
2023-02-02T09:14:09.249Z,7.45
2023-02-02T09:16:36.681Z,7.53
2023-02-02T09:19:05.239Z,7.62
2023-02-02T09:21:36.977Z,7.71
2023-02-02T09:24:09.941Z,7.79
2023-02-02T09:26:38.794Z,7.83
2023-02-02T09:29:08.489Z,7.95
2023-02-02T09:31:37.639Z,8.05
2023-02-02T09:34:08.767Z,8.18
2023-02-02T09:36:38.035Z,8.26
2023-02-02T09:39:06.511Z,8.34
2023-02-02T09:41:39.795Z,8.44
2023-02-02T09:44:30.230Z,8.54
2023-02-02T09:47:17.647Z,8.71
2023-02-02T09:50:25.942Z,8.81
2023-02-02T09:53:05.954Z,8.95
2023-02-02T09:55:38.924Z,9.01
2023-02-02T09:58:30.385Z,9.11
2023-02-02T10:01:15.824Z,9.20
2023-02-02T10:04:13.647Z,9.28
2023-02-02T10:06:45.097Z,9.34
2023-02-02T10:09:40.544Z,9.46
2023-02-02T10:12:40.911Z,9.57
2023-02-02T10:15:24.391Z,9.67
2023-02-02T10:18:00.805Z,9.71
2023-02-02T10:21:28.844Z,9.79
2023-02-02T10:23:58.442Z,9.87
2023-02-02T10:26:46.122Z,9.93
2023-02-02T10:29:28.070Z,10.03
2023-02-02T10:32:22.640Z,10.08
2023-02-02T10:35:25.233Z,10.12
2023-02-02T10:38:42.724Z,10.19
2023-02-02T10:41:32.341Z,10.21
2023-02-02T10:44:18.055Z,10.34
2023-02-02T10:46:54.054Z,10.40
2023-02-02T10:49:33.806Z,10.41
2023-02-02T10:52:17.645Z,10.53
2023-02-02T10:58:12.259Z,10.67
2023-02-02T11:00:48.616Z,10.72
2023-02-02T11:03:20.204Z,10.80
2023-02-02T11:06:06.010Z,10.91
2023-02-02T11:08:45.463Z,10.99
2023-02-02T11:11:33.273Z,11.06
2023-02-02T11:14:09.449Z,11.18
2023-02-02T11:16:45.195Z,11.25
2023-02-02T11:19:18.082Z,11.35
2023-02-02T11:21:54.930Z,11.43
2023-02-02T11:24:28.482Z,11.49
2023-02-02T11:27:07.399Z,11.56
2023-02-02T11:29:40.513Z,11.66
2023-02-02T11:32:27.466Z,11.78
2023-02-02T11:35:17.839Z,11.83
2023-02-02T11:38:13.869Z,11.92
2023-02-02T11:40:53.053Z,11.97
2023-02-02T11:43:33.452Z,12.10
2023-02-02T11:46:08.152Z,12.18
2023-02-02T11:48:39.374Z,12.25
2023-02-02T11:51:08.385Z,12.34
2023-02-02T11:53:41.494Z,12.43
2023-02-02T11:56:29.411Z,12.51
2023-02-02T11:59:03.789Z,12.54
2023-02-02T12:01:39.857Z,12.64
2023-02-02T12:04:25.857Z,12.70
2023-02-02T12:06:52.983Z,12.82
2023-02-02T12:09:24.069Z,12.85
2023-02-02T12:12:03.513Z,12.88
2023-02-02T12:14:45.962Z,12.96
2023-02-02T12:17:41.829Z,13.03
2023-02-02T12:20:29.768Z,13.05
2023-02-02T12:23:14.740Z,13.12
2023-02-02T12:26:00.569Z,13.22
2023-02-02T12:28:58.688Z,13.27
2023-02-02T12:31:48.942Z,13.39
2023-02-02T12:35:00.703Z,13.46
2023-02-02T12:38:06.232Z,13.45
2023-02-02T12:40:55.823Z,13.54
2023-02-02T12:43:46.429Z,13.56
2023-02-02T12:46:22.569Z,13.62
2023-02-02T12:48:58.462Z,13.66
2023-02-02T12:52:09.961Z,13.74
2023-02-02T12:55:02.560Z,13.79
2023-02-02T12:57:59.704Z,13.83
2023-02-02T13:00:42.755Z,13.89
2023-02-02T13:03:28.253Z,13.95
2023-02-02T13:06:21.468Z,13.93
2023-02-02T13:08:57.970Z,13.96
2023-02-02T13:11:44.861Z,14.02
2023-02-02T13:14:17.022Z,14.01
2023-02-02T13:16:50.543Z,14.10
2023-02-02T13:19:33.382Z,14.11
2023-02-02T13:22:04.970Z,14.14
2023-02-02T13:24:37.371Z,14.21
2023-02-02T13:27:07.628Z,14.24
2023-02-02T13:29:48.212Z,14.28
2023-02-02T13:32:29.297Z,14.25
2023-02-02T13:35:18.669Z,14.31
2023-02-02T13:37:59.176Z,14.35
2023-02-02T13:40:43.935Z,14.41
2023-02-02T13:43:20.061Z,14.40
2023-02-02T13:46:12.319Z,14.46
2023-02-02T13:49:13.407Z,14.46
2023-02-02T13:52:15.025Z,14.46
2023-02-02T13:55:08.756Z,14.52
2023-02-02T13:57:58.597Z,14.53
2023-02-02T14:00:33.616Z,14.51
2023-02-02T14:03:06.231Z,14.51
2023-02-02T14:05:41.593Z,14.55
2023-02-02T14:08:21.840Z,14.57
2023-02-02T14:10:51.852Z,14.60
2023-02-02T14:13:44.488Z,14.58
2023-02-02T14:16:33.037Z,14.58
2023-02-02T14:19:12.878Z,14.51
2023-02-02T14:21:39.786Z,14.54
2023-02-02T14:24:26.223Z,14.59
2023-02-02T14:26:59.723Z,14.61
2023-02-02T14:29:31.486Z,14.69
2023-02-02T14:32:02.798Z,14.66
2023-02-02T14:34:34.521Z,14.66
2023-02-02T14:37:29.876Z,14.68
2023-02-02T14:40:12.930Z,14.66
2023-02-02T14:43:39.471Z,14.68
2023-02-02T14:46:15.901Z,14.61
2023-02-02T14:49:03.062Z,14.54
2023-02-02T14:51:33.421Z,14.61
2023-02-02T14:54:06.996Z,14.60
2023-02-02T14:56:52.354Z,14.55
2023-02-02T14:59:28.956Z,14.52
2023-02-02T15:02:15.752Z,14.51
2023-02-02T15:04:47.941Z,14.44
2023-02-02T15:07:52.127Z,14.40
2023-02-02T15:11:01.170Z,14.31
2023-02-02T15:13:37.653Z,14.24
2023-02-02T15:16:18.972Z,14.15
2023-02-02T15:18:58.233Z,14.11
2023-02-02T15:21:28.107Z,14.08
2023-02-02T15:23:57.213Z,14.01
2023-02-02T15:26:37.902Z,13.97
2023-02-02T15:29:19.710Z,13.89
2023-02-02T15:31:53.565Z,13.86
2023-02-02T15:34:39.077Z,13.75
2023-02-02T15:37:10.746Z,13.74
2023-02-02T15:39:43.459Z,13.70
2023-02-02T15:42:37.949Z,13.67
2023-02-02T15:45:05.799Z,13.62
2023-02-02T15:47:40.612Z,13.59
2023-02-02T15:50:20.573Z,13.55
2023-02-02T15:52:50.709Z,13.48
2023-02-02T15:55:33.668Z,13.46
2023-02-02T15:58:02.939Z,13.41
2023-02-02T16:00:35.237Z,13.39
2023-02-02T16:03:15.340Z,13.36
2023-02-02T16:05:48.142Z,13.31
2023-02-02T16:08:26.189Z,13.27
2023-02-02T16:11:05.386Z,13.21
2023-02-02T16:13:33.649Z,13.15
2023-02-02T16:16:20.128Z,13.12
2023-02-02T16:18:47.734Z,13.08
2023-02-02T16:21:24.161Z,13.04
2023-02-02T16:23:55.976Z,12.99
2023-02-02T16:26:29.069Z,12.97
2023-02-02T16:28:57.111Z,12.90
2023-02-02T16:31:25.825Z,12.81
2023-02-02T16:33:52.916Z,12.78
2023-02-02T16:36:26.233Z,12.75
2023-02-02T16:38:55.318Z,12.70
2023-02-02T16:41:35.011Z,12.66
2023-02-02T16:44:36.328Z,12.63
2023-02-02T16:47:07.339Z,12.56
2023-02-02T16:49:35.292Z,12.52
2023-02-02T16:52:21.849Z,12.49
2023-02-02T16:54:55.569Z,12.40
2023-02-02T16:57:34.370Z,12.34
2023-02-02T17:00:09.310Z,12.32
2023-02-02T17:02:41.036Z,12.27
2023-02-02T17:05:21.768Z,12.25
2023-02-02T17:08:05.656Z,12.20
2023-02-02T17:10:43.793Z,12.16
2023-02-02T17:13:36.658Z,12.19
2023-02-02T17:16:04.308Z,12.16
2023-02-02T17:18:31.646Z,12.17
2023-02-02T17:21:07.357Z,12.15
2023-02-02T17:23:36.933Z,12.15
2023-02-02T17:26:07.590Z,12.14
2023-02-02T17:28:38.201Z,12.09
2023-02-02T17:31:11.960Z,12.06
2023-02-02T17:33:39.898Z,12.05
2023-02-02T17:36:07.620Z,12.05
2023-02-02T17:38:34.719Z,12.06
2023-02-02T17:41:03.458Z,12.07
2023-02-02T17:43:32.701Z,12.03
2023-02-02T17:46:00.273Z,12.01
2023-02-02T17:48:27.776Z,12.02
2023-02-02T17:50:55.136Z,12.02
2023-02-02T17:53:22.967Z,11.98
2023-02-02T17:55:51.426Z,11.97
2023-02-02T17:58:19.095Z,11.93
2023-02-02T18:00:53.529Z,11.91
2023-02-02T18:03:26.325Z,11.84
2023-02-02T18:05:53.877Z,11.84
2023-02-02T18:08:20.925Z,11.84
2023-02-02T18:10:47.912Z,11.83
2023-02-02T18:13:17.360Z,11.80
2023-02-02T18:15:44.423Z,11.75
2023-02-02T18:18:12.578Z,11.69
2023-02-02T18:20:47.090Z,11.69
2023-02-02T18:23:15.811Z,11.68
2023-02-02T18:25:43.718Z,11.67
2023-02-02T18:28:11.110Z,11.65
2023-02-02T18:30:40.393Z,11.59
2023-02-02T18:33:11.809Z,11.58
2023-02-02T18:35:47.419Z,11.57
2023-02-02T18:38:14.880Z,11.56
2023-02-02T18:40:42.086Z,11.53
2023-02-02T18:43:09.517Z,11.47
2023-02-02T18:45:36.833Z,11.47
2023-02-02T18:48:04.433Z,11.47
2023-02-02T18:50:31.425Z,11.44
2023-02-02T18:52:58.764Z,11.42
2023-02-02T18:55:26.949Z,11.40
2023-02-02T18:57:54.293Z,11.39
2023-02-02T19:00:22.143Z,11.39
2023-02-02T19:02:49.448Z,11.37
2023-02-02T19:05:35.641Z,11.35
2023-02-02T19:08:04.123Z,11.34
2023-02-02T19:10:31.644Z,11.33
2023-02-02T19:13:19.193Z,11.29
2023-02-02T19:15:49.726Z,11.23
2023-02-02T19:18:23.377Z,11.19
2023-02-02T19:20:52.531Z,11.14
2023-02-02T19:23:23.565Z,11.11
2023-02-02T19:25:54.247Z,11.06
2023-02-02T19:28:31.470Z,11.03
2023-02-02T19:31:01.858Z,10.98
2023-02-02T19:33:39.961Z,10.94
2023-02-02T19:36:21.362Z,10.90
2023-02-02T19:38:52.888Z,10.85
2023-02-02T19:41:24.064Z,10.83
2023-02-02T19:44:11.617Z,10.79
2023-02-02T19:46:44.509Z,10.74
2023-02-02T19:49:16.945Z,10.70
2023-02-02T19:51:53.729Z,10.68
2023-02-02T19:54:32.841Z,10.69
2023-02-02T19:57:13.408Z,10.63
2023-02-02T19:59:43.247Z,10.56
2023-02-02T20:02:44.019Z,10.49
2023-02-02T20:05:10.953Z,10.45
2023-02-02T20:07:41.490Z,10.41
2023-02-02T20:10:21.483Z,10.39
2023-02-02T20:12:50.072Z,10.40
2023-02-02T20:15:36.701Z,10.38
2023-02-02T20:18:18.962Z,10.36
2023-02-02T20:20:58.449Z,10.30
2023-02-02T20:23:45.837Z,10.26
2023-02-02T20:26:36.688Z,10.17
2023-02-02T20:29:39.048Z,10.06
2023-02-02T20:32:19.430Z,9.98
2023-02-02T20:34:46.751Z,9.90
2023-02-02T20:37:13.681Z,9.88
2023-02-02T20:39:42.102Z,9.85
2023-02-02T20:42:09.044Z,9.82
2023-02-02T20:44:36.311Z,9.80
2023-02-02T20:47:03.646Z,9.79
2023-02-02T20:49:31.836Z,9.77
2023-02-02T20:52:02.229Z,9.76
2023-02-02T20:54:29.798Z,9.74
2023-02-02T20:56:56.726Z,9.75
2023-02-02T20:59:23.974Z,9.74
2023-02-02T21:01:51.272Z,9.76
2023-02-02T21:04:19.256Z,9.79
2023-02-02T21:06:48.123Z,9.79
2023-02-02T21:09:16.712Z,9.81
2023-02-02T21:11:43.929Z,9.82
2023-02-02T21:14:10.987Z,9.84
2023-02-02T21:16:38.068Z,9.85
2023-02-02T21:19:05.853Z,9.83
2023-02-02T21:21:32.931Z,9.79
2023-02-02T21:24:00.891Z,9.76
2023-02-02T21:26:30.551Z,9.69
2023-02-02T21:28:58.876Z,9.63
2023-02-02T21:31:26.734Z,9.60
2023-02-02T21:33:54.116Z,9.57
2023-02-02T21:36:34.650Z,9.52
2023-02-02T21:39:33.429Z,9.48
2023-02-02T21:42:09.267Z,9.41
2023-02-02T21:44:52.522Z,9.37
2023-02-02T21:47:33.278Z,9.27
2023-02-02T21:50:28.088Z,9.19
2023-02-02T21:53:18.163Z,9.11
2023-02-02T21:55:59.879Z,9.06
2023-02-02T21:58:35.040Z,8.94
2023-02-02T22:01:24.200Z,8.82
2023-02-02T22:03:51.585Z,8.74
2023-02-02T22:06:42.255Z,8.66
2023-02-02T22:09:12.126Z,8.61
2023-02-02T22:11:47.269Z,8.59
2023-02-02T22:14:19.025Z,8.50
2023-02-02T22:16:50.317Z,8.43
2023-02-02T22:19:38.735Z,8.39
2023-02-02T22:22:08.592Z,8.35
2023-02-02T22:24:36.804Z,8.31
2023-02-02T22:27:03.830Z,8.24
2023-02-02T22:29:35.356Z,8.18
2023-02-02T22:32:02.409Z,8.14
2023-02-02T22:34:29.447Z,8.11
2023-02-02T22:36:56.387Z,8.08
2023-02-02T22:39:23.311Z,8.08
2023-02-02T22:41:50.294Z,8.06
2023-02-02T22:44:17.165Z,8.01
2023-02-02T22:46:44.189Z,7.97
2023-02-02T22:49:11.242Z,7.94
2023-02-02T22:51:38.184Z,7.91
2023-02-02T22:54:05.305Z,7.89
2023-02-02T22:56:32.316Z,7.86
2023-02-02T22:59:01.409Z,7.83
2023-02-02T23:01:28.520Z,7.79
2023-02-02T23:03:55.927Z,7.73
2023-02-02T23:06:23.087Z,7.72
2023-02-02T23:08:50.359Z,7.70
2023-02-02T23:11:17.378Z,7.71
2023-02-02T23:13:44.287Z,7.65
2023-02-02T23:16:11.353Z,7.64
2023-02-02T23:18:38.378Z,7.66
2023-02-02T23:21:05.706Z,7.67
2023-02-02T23:23:32.648Z,7.73
2023-02-02T23:25:59.541Z,7.79
2023-02-02T23:28:26.433Z,7.80
2023-02-02T23:31:12.217Z,7.84
2023-02-02T23:33:39.356Z,7.87
2023-02-02T23:36:06.978Z,7.91
2023-02-02T23:38:33.948Z,7.93
2023-02-02T23:41:00.874Z,7.94
2023-02-02T23:43:28.412Z,8.00
2023-02-02T23:45:55.463Z,8.03
2023-02-02T23:48:22.517Z,8.04
2023-02-02T23:50:49.475Z,8.01
2023-02-02T23:53:17.215Z,7.95
2023-02-02T23:55:48.120Z,7.88
2023-02-02T23:58:15.983Z,7.82
